Time;durP1;ratioP1;P1;durP2;ratioP2;P2;SDS_P1;SDS_P2;PMS_P1;PMS_P2;Temp;Humidity;BMP_temperature;BMP_pressure;BME280_temperature;BME280_humidity;BME280_pressure;Samples;Min_cycle;Max_cycle;Signal;HPM_P1;HPM_P2
2023/04/14 00:00:40;;;;;;;;;;;;;;;10.89;68.55;99468.94;4924690;29;19915;-74
2023/04/14 00:03:32;;;;;;;;;;;;;;;10.81;68.92;99464.47;4918194;29;20322;-74
2023/04/14 00:06:24;;;;;;;;;;;;;;;10.92;68.33;99460.09;4918659;29;19918;-75
2023/04/14 00:09:13;;;;;;;;;;;;;;;11.02;67.68;99453.38;4919203;29;19915;-75
2023/04/14 00:12:05;;;;;;;;;;;;;;;10.92;67.85;99462.03;4925189;29;19915;-74
2023/04/14 00:14:57;;;;;;;;;;;;;;;10.92;67.75;99457.38;4898778;29;19916;-75
2023/04/14 00:17:47;;;;;;;;;;;;;;;10.82;68.61;99452.44;4900136;29;20402;-75
2023/04/14 00:20:38;;;;;;;;;;;;;;;10.71;69.34;99449.44;4912229;29;19915;-75
2023/04/14 00:23:30;;;;;;;;;;;;;;;10.72;69.53;99463.81;4920274;29;19915;-74
2023/04/14 00:26:22;;;;;;;;;;;;;;;10.76;68.94;99456.56;4918192;29;19915;-74
2023/04/14 00:29:14;;;;;;;;;;;;;;;10.70;69.03;99460.66;4917600;29;19919;-74
2023/04/14 00:32:06;;;;;;;;;;;;;;;10.69;69.62;99459.06;4940950;28;20386;-74
2023/04/14 00:34:58;;;;;;;;;;;;;;;10.77;68.90;99454.63;4910062;29;19915;-73
2023/04/14 00:37:50;;;;;;;;;;;;;;;10.82;68.70;99447.00;4933180;29;19923;-75
2023/04/14 00:40:42;;;;;;;;;;;;;;;10.88;67.39;99445.59;4930057;29;19915;-75
2023/04/14 00:43:34;;;;;;;;;;;;;;;10.89;67.44;99440.97;4932671;28;20556;-75
2023/04/14 00:46:26;;;;;;;;;;;;;;;10.82;67.22;99436.13;4930146;29;20374;-75
2023/04/14 00:49:18;;;;;;;;;;;;;;;10.75;67.78;99438.66;4930178;29;20295;-75
2023/04/14 00:52:11;;;;;;;;;;;;;;;10.61;67.84;99435.56;4924860;29;19914;-75
2023/04/14 00:55:03;;;;;;;;;;;;;;;10.54;68.42;99444.31;4910463;29;19919;-74
2023/04/14 00:57:55;;;;;;;;;;;;;;;10.46;68.47;99444.44;4922438;29;19919;-74
2023/04/14 01:00:51;;;;;;;;;;;;;;;10.67;67.69;99453.97;4931884;29;20375;-74
2023/04/14 01:03:43;;;;;;;;;;;;;;;10.55;67.67;99450.53;4923574;29;20387;-74
2023/04/14 01:06:35;;;;;;;;;;;;;;;10.49;68.21;99443.75;4929532;29;19915;-74
2023/04/14 01:09:27;;;;;;;;;;;;;;;10.41;68.45;99448.22;4919318;29;19915;-74
2023/04/14 01:12:26;;;;;;;;;;;;;;;10.38;68.80;99451.59;4915833;29;19919;-74
2023/04/14 01:15:19;;;;;;;;;;;;;;;10.38;69.00;99450.81;4911713;29;19915;-74
2023/04/14 01:18:16;;;;;;;;;;;;;;;10.45;68.37;99440.16;4916898;29;19919;-74
2023/04/14 01:21:11;;;;;;;;;;;;;;;10.37;68.32;99438.34;4930874;29;19915;-74
2023/04/14 01:24:06;;;;;;;;;;;;;;;10.44;68.13;99444.00;4916909;29;19915;-74
2023/04/14 01:27:03;;;;;;;;;;;;;;;10.39;68.15;99439.59;4920279;29;19915;-74
2023/04/14 01:30:01;;;;;;;;;;;;;;;10.37;68.40;99443.78;4916363;29;20378;-74
2023/04/14 01:32:49;;;;;;;;;;;;;;;10.48;68.00;99444.88;4936740;28;19981;-73
2023/04/14 01:35:44;;;;;;;;;;;;;;;10.40;68.47;99446.63;4916650;29;19915;-74
2023/04/14 01:38:35;;;;;;;;;;;;;;;10.29;68.90;99434.66;4928922;29;19969;-74
2023/04/14 01:41:28;;;;;;;;;;;;;;;10.27;69.47;99440.41;4910997;29;19915;-74
2023/04/14 01:44:21;;;;;;;;;;;;;;;10.30;69.99;99433.53;4912604;29;19916;-74
2023/04/14 01:47:14;;;;;;;;;;;;;;;10.34;69.39;99433.63;4919122;29;19915;-73
2023/04/14 01:50:06;;;;;;;;;;;;;;;10.33;69.22;99432.03;4908997;29;19919;-75
2023/04/14 01:52:59;;;;;;;;;;;;;;;10.34;69.01;99434.41;4903225;29;19915;-75
2023/04/14 01:55:52;;;;;;;;;;;;;;;10.41;68.98;99431.09;4909395;29;19919;-75
2023/04/14 01:58:43;;;;;;;;;;;;;;;10.41;68.97;99434.63;4929865;29;19919;-75
2023/04/14 02:01:35;;;;;;;;;;;;;;;10.45;68.88;99421.13;4920052;29;19915;-74
2023/04/14 02:04:29;;;;;;;;;;;;;;;10.40;68.23;99418.66;4919551;29;19915;-75
2023/04/14 02:07:21;;;;;;;;;;;;;;;10.34;68.65;99420.81;4922422;29;20386;-74
2023/04/14 02:10:16;;;;;;;;;;;;;;;10.27;69.05;99409.75;4927711;29;20383;-75
2023/04/14 02:13:09;;;;;;;;;;;;;;;10.36;68.27;99409.63;4924050;29;19919;-74
2023/04/14 02:16:01;;;;;;;;;;;;;;;10.35;67.97;99414.25;4921639;29;20367;-74
2023/04/14 02:18:53;;;;;;;;;;;;;;;10.39;67.88;99408.91;4959190;23;19923;-79
2023/04/14 02:21:47;;;;;;;;;;;;;;;10.37;67.40;99413.88;4939856;29;19923;-78
2023/04/14 02:24:39;;;;;;;;;;;;;;;10.31;66.77;99420.72;4942872;29;19914;-78
2023/04/14 02:27:35;;;;;;;;;;;;;;;10.32;66.61;99411.41;4934855;29;19922;-78
2023/04/14 02:30:33;;;;;;;;;;;;;;;10.29;66.21;99412.91;4943070;29;19915;-78
2023/04/14 02:33:27;;;;;;;;;;;;;;;10.29;63.44;99405.56;4936817;29;19918;-78
2023/04/14 02:36:20;;;;;;;;;;;;;;;10.35;63.17;99394.44;4945106;28;19919;-77
2023/04/14 02:39:16;;;;;;;;;;;;;;;10.38;62.99;99405.41;4938252;29;20303;-77
2023/04/14 02:42:12;;;;;;;;;;;;;;;10.39;62.57;99398.03;4945147;29;19915;-79
2023/04/14 02:45:07;;;;;;;;;;;;;;;10.39;62.76;99390.69;4941721;28;19915;-78
2023/04/14 02:48:00;;;;;;;;;;;;;;;10.41;62.91;99390.34;4936406;29;19914;-77
2023/04/14 02:50:53;;;;;;;;;;;;;;;10.44;62.57;99381.50;4943055;29;19914;-76
2023/04/14 02:53:46;;;;;;;;;;;;;;;10.37;62.84;99384.00;4939863;29;19918;-77
2023/04/14 02:56:43;;;;;;;;;;;;;;;10.40;62.68;99378.69;4942682;28;19919;-78
2023/04/14 02:59:35;;;;;;;;;;;;;;;10.35;62.63;99378.16;4942450;29;19914;-78
2023/04/14 03:02:28;;;;;;;;;;;;;;;10.37;62.24;99370.41;4939954;29;19914;-77
2023/04/14 03:05:26;;;;;;;;;;;;;;;10.35;62.41;99378.94;4938829;29;19919;-77
2023/04/14 03:08:26;;;;;;;;;;;;;;;10.31;62.41;99371.81;4936608;29;19915;-78
2023/04/14 03:11:19;;;;;;;;;;;;;;;10.35;62.56;99372.72;4924474;29;19914;-78
2023/04/14 03:14:12;;;;;;;;;;;;;;;10.34;61.80;99362.97;4936253;29;19915;-78
2023/04/14 03:17:04;;;;;;;;;;;;;;;10.42;62.31;99364.72;4943716;28;19919;-79
2023/04/14 03:19:57;;;;;;;;;;;;;;;10.44;62.37;99362.47;4942619;29;19919;-77
2023/04/14 03:22:47;;;;;;;;;;;;;;;10.38;61.54;99356.50;4941180;29;19915;-78
2023/04/14 03:25:39;;;;;;;;;;;;;;;10.38;62.23;99355.69;4937913;29;20374;-78
2023/04/14 03:28:32;;;;;;;;;;;;;;;10.41;62.14;99353.09;4941721;29;19914;-78
2023/04/14 03:31:31;;;;;;;;;;;;;;;10.38;62.25;99356.50;4944292;28;19914;-77
2023/04/14 03:34:24;;;;;;;;;;;;;;;10.38;62.40;99355.69;4945475;29;19914;-78
2023/04/14 03:37:17;;;;;;;;;;;;;;;10.42;62.22;99364.72;4942331;28;19914;-77
2023/04/14 03:40:09;;;;;;;;;;;;;;;10.38;62.18;99353.78;4945302;29;20315;-78
2023/04/14 03:43:02;;;;;;;;;;;;;;;10.35;62.51;99356.41;4941422;29;19914;-78
2023/04/14 03:45:52;;;;;;;;;;;;;;;10.32;62.56;99359.78;4939895;29;19914;-78
2023/04/14 03:48:42;;;;;;;;;;;;;;;10.35;62.07;99362.63;4935775;29;19918;-77
2023/04/14 03:51:35;;;;;;;;;;;;;;;10.31;62.22;99358.25;4942661;28;19915;-76
2023/04/14 03:54:29;;;;;;;;;;;;;;;10.30;62.24;99357.44;4938709;29;19915;-77
2023/04/14 03:57:22;;;;;;;;;;;;;;;10.32;62.51;99355.16;4937883;29;19941;-77
2023/04/14 04:00:09;;;;;;;;;;;;;;;10.41;62.76;99361.25;4949030;28;19915;-77
2023/04/14 04:03:08;;;;;;;;;;;;;;;10.40;62.70;99354.22;4929061;29;19915;-77
2023/04/14 04:06:00;;;;;;;;;;;;;;;10.34;62.47;99360.25;4940535;29;19915;-77
2023/04/14 04:08:52;;;;;;;;;;;;;;;10.35;62.49;99361.84;4937710;29;19915;-76
2023/04/14 04:11:45;;;;;;;;;;;;;;;10.37;62.19;99364.97;4941824;29;20406;-76
2023/04/14 04:14:39;;;;;;;;;;;;;;;10.34;62.15;99362.97;4943538;28;19914;-76
2023/04/14 04:17:30;;;;;;;;;;;;;;;10.39;62.32;99358.06;4938189;29;19914;-76
2023/04/14 04:20:23;;;;;;;;;;;;;;;10.29;61.98;99364.00;4940872;29;19915;-76
2023/04/14 04:23:18;;;;;;;;;;;;;;;10.34;62.53;99368.41;4935678;29;19914;-76
2023/04/14 04:26:10;;;;;;;;;;;;;;;10.38;62.56;99361.94;4937582;29;19914;-76
2023/04/14 04:29:03;;;;;;;;;;;;;;;10.38;62.71;99369.28;4936579;29;19914;-76
2023/04/14 04:31:55;;;;;;;;;;;;;;;10.35;62.22;99370.78;4931173;29;19915;-75
2023/04/14 04:34:47;;;;;;;;;;;;;;;10.35;62.60;99383.56;4941723;28;19914;-77
2023/04/14 04:37:37;;;;;;;;;;;;;;;10.37;62.59;99370.41;4933655;29;20303;-77
2023/04/14 04:40:29;;;;;;;;;;;;;;;10.37;62.50;99373.13;4928283;29;19915;-76
2023/04/14 04:43:18;;;;;;;;;;;;;;;10.31;62.13;99369.88;4932020;29;19915;-75
2023/04/14 04:46:15;;;;;;;;;;;;;;;10.28;62.62;99368.66;4945635;28;19919;-75
2023/04/14 04:49:07;;;;;;;;;;;;;;;10.26;62.96;99360.03;4931546;29;19919;-76
2023/04/14 04:51:59;;;;;;;;;;;;;;;10.28;63.66;99367.84;4933443;29;19914;-75
2023/04/14 04:54:50;;;;;;;;;;;;;;;10.27;63.05;99369.78;4932776;29;19923;-76
2023/04/14 04:57:42;;;;;;;;;;;;;;;10.31;62.76;99375.31;4933809;29;19914;-77
2023/04/14 05:00:32;;;;;;;;;;;;;;;10.30;62.89;99376.47;4935026;28;19914;-76
2023/04/14 05:03:21;;;;;;;;;;;;;;;10.29;62.86;99383.81;4929037;29;19915;-77
2023/04/14 05:06:13;;;;;;;;;;;;;;;10.21;62.87;99394.81;4935210;28;19914;-76
2023/04/14 05:09:05;;;;;;;;;;;;;;;10.27;62.98;99388.78;4930057;29;19915;-77
2023/04/14 05:11:57;;;;;;;;;;;;;;;10.28;62.86;99395.81;4930022;29;19915;-77
2023/04/14 05:14:49;;;;;;;;;;;;;;;10.31;62.55;99388.13;4932369;29;19923;-76
2023/04/14 05:17:41;;;;;;;;;;;;;;;10.25;62.47;99401.97;4930017;29;20374;-75
2023/04/14 05:20:33;;;;;;;;;;;;;;;10.24;62.35;99403.09;4934638;29;19919;-76
2023/04/14 05:23:25;;;;;;;;;;;;;;;10.31;62.07;99393.56;4930113;29;19915;-77
2023/04/14 05:26:15;;;;;;;;;;;;;;;10.33;62.02;99399.41;4934866;29;19914;-76
2023/04/14 05:29:07;;;;;;;;;;;;;;;10.33;61.65;99404.84;4929777;29;20314;-76
2023/04/14 05:31:59;;;;;;;;;;;;;;;10.34;61.92;99409.16;4929579;29;19914;-76
2023/04/14 05:34:51;;;;;;;;;;;;;;;10.37;61.80;99403.81;4929640;29;19919;-75
2023/04/14 05:37:40;;;;;;;;;;;;;;;10.43;62.48;99402.44;4934525;28;20329;-76
2023/04/14 05:40:29;;;;;;;;;;;;;;;10.36;61.46;99401.47;4927360;29;20302;-76
2023/04/14 05:43:19;;;;;;;;;;;;;;;10.32;62.22;99411.41;4932533;29;19918;-76
2023/04/14 05:46:11;;;;;;;;;;;;;;;10.25;62.44;99407.38;4928428;28;19919;-76
2023/04/14 05:49:03;;;;;;;;;;;;;;;10.27;62.27;99415.97;4932477;29;19923;-76
2023/04/14 05:51:55;;;;;;;;;;;;;;;10.31;62.29;99404.44;4939867;29;20398;-75
2023/04/14 05:54:47;;;;;;;;;;;;;;;10.28;62.74;99412.13;4937313;29;20379;-76
2023/04/14 05:57:37;;;;;;;;;;;;;;;10.36;62.60;99406.91;4937164;29;19919;-76
2023/04/14 06:00:24;;;;;;;;;;;;;;;10.31;62.21;99410.63;4939235;29;20524;-76
2023/04/14 06:03:15;;;;;;;;;;;;;;;10.31;61.91;99409.88;4936770;29;19914;-76
2023/04/14 06:06:07;;;;;;;;;;;;;;;10.33;62.43;99413.00;4933934;29;20293;-76
2023/04/14 06:08:57;;;;;;;;;;;;;;;10.36;61.98;99421.28;4935057;29;19918;-76
2023/04/14 06:11:49;;;;;;;;;;;;;;;10.33;61.76;99418.44;4936448;29;19923;-76
2023/04/14 06:14:38;;;;;;;;;;;;;;;10.33;61.75;99424.66;4940274;29;19914;-76
2023/04/14 06:17:30;;;;;;;;;;;;;;;10.46;61.87;99428.16;4937498;29;19923;-76
2023/04/14 06:20:20;;;;;;;;;;;;;;;10.53;61.72;99431.84;4935797;29;19915;-76
2023/04/14 06:23:12;;;;;;;;;;;;;;;10.50;61.44;99440.69;4939783;29;19914;-76
2023/04/14 06:26:04;;;;;;;;;;;;;;;10.55;61.55;99448.59;4937312;29;19915;-76
2023/04/14 06:28:56;;;;;;;;;;;;;;;10.57;60.41;99449.03;4934899;29;19914;-75
2023/04/14 06:31:48;;;;;;;;;;;;;;;10.54;60.34;99448.94;4938897;29;19914;-76
2023/04/14 06:34:40;;;;;;;;;;;;;;;10.55;60.30;99458.69;4936886;29;19933;-76
2023/04/14 06:37:32;;;;;;;;;;;;;;;10.92;59.86;99460.09;4936370;29;19918;-78
2023/04/14 06:40:24;;;;;;;;;;;;;;;11.34;57.95;99465.84;4939156;29;19915;-77
2023/04/14 06:43:16;;;;;;;;;;;;;;;11.64;57.57;99476.28;4937562;29;20387;-78
2023/04/14 06:46:03;;;;;;;;;;;;;;;11.64;56.42;99460.75;4941151;29;19915;-79
2023/04/14 06:48:53;;;;;;;;;;;;;;;11.45;56.52;99466.13;4936920;29;19914;-78
2023/04/14 06:51:44;;;;;;;;;;;;;;;11.83;56.97;99468.25;4936163;29;19914;-78
2023/04/14 06:54:35;;;;;;;;;;;;;;;12.01;56.38;99472.16;4937694;29;19919;-77
2023/04/14 06:57:24;;;;;;;;;;;;;;;11.50;56.80;99476.75;4931869;29;19919;-78
2023/04/14 07:00:16;;;;;;;;;;;;;;;12.42;57.37;99459.81;4930907;29;20005;-78
2023/04/14 07:03:08;;;;;;;;;;;;;;;11.77;55.84;99459.56;4935937;29;19915;-75
2023/04/14 07:06:10;;;;;;;;;;;;;;;11.34;57.55;99462.34;4941264;29;19915;-76
2023/04/14 07:08:57;;;;;;;;;;;;;;;11.71;55.47;99474.53;4920482;29;19914;-78
2023/04/14 07:11:49;;;;;;;;;;;;;;;12.37;56.43;99479.19;4924115;29;19915;-77
2023/04/14 07:14:41;;;;;;;;;;;;;;;13.31;51.86;99470.50;4922023;29;19915;-76
2023/04/14 07:17:29;;;;;;;;;;;;;;;13.22;51.89;99473.47;4924017;29;19919;-76
2023/04/14 07:20:20;;;;;;;;;;;;;;;13.46;53.43;99475.06;4936153;29;20309;-78
2023/04/14 07:23:12;;;;;;;;;;;;;;;13.23;51.23;99477.00;4963407;28;19914;-77
2023/04/14 07:26:04;;;;;;;;;;;;;;;13.76;52.68;99482.59;4961143;28;20374;-76
2023/04/14 07:28:56;;;;;;;;;;;;;;;14.14;51.63;99494.09;4952777;28;19915;-77
2023/04/14 07:31:48;;;;;;;;;;;;;;;14.66;49.08;99483.47;4942117;29;19915;-77
2023/04/14 07:34:40;;;;;;;;;;;;;;;14.52;48.79;99500.50;4941904;29;19915;-77
2023/04/14 07:37:32;;;;;;;;;;;;;;;14.68;46.96;99505.81;4939583;29;19919;-77
2023/04/14 07:40:24;;;;;;;;;;;;;;;14.93;47.83;99509.63;4942659;29;20383;-77
2023/04/14 07:43:16;;;;;;;;;;;;;;;14.70;46.41;99512.47;4940652;29;19915;-77
2023/04/14 07:46:09;;;;;;;;;;;;;;;14.25;47.85;99521.59;4944178;29;19915;-77
2023/04/14 07:49:00;;;;;;;;;;;;;;;14.96;48.57;99530.75;4940932;29;20399;-77
2023/04/14 07:51:52;;;;;;;;;;;;;;;14.98;48.48;99536.66;4941184;29;19914;-76
2023/04/14 07:54:44;;;;;;;;;;;;;;;13.75;48.38;99538.38;4942818;29;19915;-77
2023/04/14 07:57:37;;;;;;;;;;;;;;;14.78;48.97;99541.47;4940930;29;19918;-77
2023/04/14 08:00:26;;;;;;;;;;;;;;;14.69;50.63;99553.88;4938654;29;19914;-77
2023/04/14 08:03:16;;;;;;;;;;;;;;;15.10;47.07;99554.78;4942870;29;19915;-78
2023/04/14 08:06:07;;;;;;;;;;;;;;;15.31;47.28;99550.34;4941461;29;19919;-77
2023/04/14 08:08:59;;;;;;;;;;;;;;;14.72;46.35;99548.47;4938841;29;19915;-75
2023/04/14 08:11:51;;;;;;;;;;;;;;;13.67;48.13;99548.38;4932455;29;19926;-76
2023/04/14 08:14:43;;;;;;;;;;;;;;;13.25;50.45;99556.59;4925071;29;19915;-75
2023/04/14 08:17:36;;;;;;;;;;;;;;;12.95;51.78;99558.31;4938606;29;19919;-75
2023/04/14 08:20:27;;;;;;;;;;;;;;;12.85;51.65;99568.63;4876953;29;20380;-75
2023/04/14 08:23:19;;;;;;;;;;;;;;;12.71;51.65;99568.34;4880539;29;19916;-75
2023/04/14 08:26:11;;;;;;;;;;;;;;;12.67;51.39;99581.13;4884272;29;19915;-75
2023/04/14 08:29:03;;;;;;;;;;;;;;;12.74;51.77;99578.56;4881185;29;20384;-75
2023/04/14 08:31:53;;;;;;;;;;;;;;;12.66;51.11;99574.06;4880147;29;20369;-75
2023/04/14 08:34:44;;;;;;;;;;;;;;;12.74;50.96;99588.66;4883865;29;19916;-75
2023/04/14 08:37:36;;;;;;;;;;;;;;;12.69;52.44;99587.00;4881786;29;19924;-75
2023/04/14 08:40:32;;;;;;;;;;;;;;;12.59;51.81;99584.84;4888020;29;19916;-75
2023/04/14 08:43:21;;;;;;;;;;;;;;;12.57;51.95;99591.78;4889425;29;19920;-75
2023/04/14 08:46:10;;;;;;;;;;;;;;;12.63;51.36;99593.09;4880982;29;19915;-75
2023/04/14 08:49:03;;;;;;;;;;;;;;;12.68;52.55;99590.09;4878556;29;19916;-75
2023/04/14 08:51:55;;;;;;;;;;;;;;;12.63;50.49;99588.44;4883728;29;19915;-75
2023/04/14 08:54:49;;;;;;;;;;;;;;;12.66;51.46;99589.66;4897669;29;19915;-75
2023/04/14 08:57:42;;;;;;;;;;;;;;;12.73;51.59;99596.06;4902028;29;19919;-75
2023/04/14 09:00:34;;;;;;;;;;;;;;;12.81;51.22;99597.00;4899880;29;19915;-74
2023/04/14 09:03:26;;;;;;;;;;;;;;;12.76;51.06;99597.28;4903365;29;19916;-75
2023/04/14 09:06:15;;;;;;;;;;;;;;;12.76;51.83;99597.28;4901320;29;19915;-75
2023/04/14 09:09:09;;;;;;;;;;;;;;;12.69;51.20;99603.38;4899259;29;19920;-75
2023/04/14 09:12:01;;;;;;;;;;;;;;;12.83;51.58;99600.16;4902129;29;20283;-74
2023/04/14 09:14:52;;;;;;;;;;;;;;;12.83;52.23;99609.13;4900334;29;19915;-75
2023/04/14 09:17:44;;;;;;;;;;;;;;;12.75;52.28;99604.66;4898154;29;20380;-75
2023/04/14 09:20:36;;;;;;;;;;;;;;;12.81;54.13;99608.69;4901313;29;20435;-75
2023/04/14 09:23:28;;;;;;;;;;;;;;;12.86;53.99;99613.88;4899620;29;19916;-75
2023/04/14 09:26:20;;;;;;;;;;;;;;;12.81;52.46;99616.88;4903022;29;19997;-75
2023/04/14 09:29:12;;;;;;;;;;;;;;;12.84;53.00;99618.91;4898408;29;19915;-75
2023/04/14 09:32:04;;;;;;;;;;;;;;;12.84;52.39;99618.91;4898784;29;19915;-75
2023/04/14 09:34:56;;;;;;;;;;;;;;;12.85;53.37;99612.28;4902366;29;20295;-75
2023/04/14 09:37:45;;;;;;;;;;;;;;;12.94;53.70;99614.03;4899997;29;19919;-75
2023/04/14 09:40:37;;;;;;;;;;;;;;;12.90;52.08;99613.19;4897823;29;19915;-75
2023/04/14 09:43:29;;;;;;;;;;;;;;;12.85;51.62;99616.94;4901559;29;19915;-75
2023/04/14 09:46:21;;;;;;;;;;;;;;;12.85;50.38;99620.47;4899103;29;19915;-74
2023/04/14 09:49:13;;;;;;;;;;;;;;;12.92;49.65;99619.84;4897984;29;19915;-75
2023/04/14 09:52:10;;;;;;;;;;;;;;;12.99;49.54;99624.66;4900668;29;20267;-75
2023/04/14 09:54:58;;;;;;;;;;;;;;;13.06;49.33;99622.88;4898119;29;19915;-75
2023/04/14 09:57:49;;;;;;;;;;;;;;;13.07;50.10;99627.19;4901550;29;19919;-75
2023/04/14 10:00:41;;;;;;;;;;;;;;;13.21;49.68;99629.44;4899385;29;19915;-75
2023/04/14 10:03:38;;;;;;;;;;;;;;;13.13;49.18;99616.81;4897448;29;19915;-75
2023/04/14 10:06:30;;;;;;;;;;;;;;;13.22;49.57;99631.03;4900732;29;19915;-75
2023/04/14 10:09:25;;;;;;;;;;;;;;;13.22;51.29;99634.53;4897549;29;20379;-75
2023/04/14 10:12:16;;;;;;;;;;;;;;;13.22;52.17;99628.28;4901998;29;20331;-75
2023/04/14 10:15:09;;;;;;;;;;;;;;;13.25;51.75;99630.31;4900138;29;19915;-75
2023/04/14 10:18:01;;;;;;;;;;;;;;;13.27;51.96;99623.34;4898200;29;19919;-75
2023/04/14 10:20:53;;;;;;;;;;;;;;;13.40;52.46;99625.94;4900914;29;19915;-75
2023/04/14 10:23:45;;;;;;;;;;;;;;;13.52;52.28;99621.09;4899132;29;19915;-75
2023/04/14 10:26:34;;;;;;;;;;;;;;;13.66;52.94;99615.88;4897184;29;19915;-75
2023/04/14 10:29:26;;;;;;;;;;;;;;;13.84;52.08;99620.88;4897160;29;19916;-75
2023/04/14 10:32:19;;;;;;;;;;;;;;;13.87;52.43;99620.94;4889333;29;19920;-75
2023/04/14 10:35:11;;;;;;;;;;;;;;;13.97;51.91;99605.88;4880670;29;19916;-75
2023/04/14 10:38:03;;;;;;;;;;;;;;;14.02;50.25;99611.03;4884596;29;20300;-75
2023/04/14 10:40:55;;;;;;;;;;;;;;;14.11;47.92;99606.94;4891132;29;19915;-75
2023/04/14 10:43:47;;;;;;;;;;;;;;;14.31;50.52;99604.09;4893061;29;19919;-75
2023/04/14 10:46:48;;;;;;;;;;;;;;;14.44;49.28;99610.97;4883606;29;19915;-75
2023/04/14 10:49:41;;;;;;;;;;;;;;;14.53;48.31;99609.56;4894585;29;19915;-75
2023/04/14 10:52:33;;;;;;;;;;;;;;;14.61;48.36;99606.94;4885015;29;19935;-75
2023/04/14 10:55:23;;;;;;;;;;;;;;;14.77;48.23;99602.09;4882697;29;19915;-75
2023/04/14 10:58:19;;;;;;;;;;;;;;;14.95;48.54;99590.19;4884784;29;20316;-75
2023/04/14 11:01:30;;;;;;;;;;;;;;;15.12;46.34;99601.75;4883800;29;19916;-75
2023/04/14 11:04:22;;;;;;;;;;;;;;;15.16;47.94;99589.69;4886298;29;19916;-75
2023/04/14 11:07:21;;;;;;;;;;;;;;;15.22;48.33;99593.66;4874274;29;19915;-75
2023/04/14 11:10:23;;;;;;;;;;;;;;;15.45;47.30;99585.31;4881624;29;19916;-75
2023/04/14 11:13:13;;;;;;;;;;;;;;;15.48;46.82;99579.09;4885041;29;19915;-75
2023/04/14 11:16:06;;;;;;;;;;;;;;;15.66;46.78;99585.56;4882963;29;20387;-76
2023/04/14 11:19:02;;;;;;;;;;;;;;;15.65;47.94;99577.69;4882601;29;19916;-75
2023/04/14 11:21:52;;;;;;;;;;;;;;;15.66;47.53;99577.34;4883584;29;19916;-76
2023/04/14 11:24:44;;;;;;;;;;;;;;;15.74;47.81;99584.47;4881409;29;19919;-75
2023/04/14 11:27:34;;;;;;;;;;;;;;;15.83;48.98;99579.47;4883806;29;19915;-76
2023/04/14 11:30:26;;;;;;;;;;;;;;;15.85;48.92;99576.31;4881349;29;19915;-76
2023/04/14 11:33:18;;;;;;;;;;;;;;;15.81;47.35;99581.00;4879235;29;19920;-76
2023/04/14 11:36:11;;;;;;;;;;;;;;;15.92;46.89;99564.63;4883734;29;19919;-76
2023/04/14 11:39:00;;;;;;;;;;;;;;;16.06;46.29;99564.75;4878844;29;19915;-75
2023/04/14 11:41:52;;;;;;;;;;;;;;;16.00;46.53;99566.28;4896429;29;20307;-75
2023/04/14 11:44:44;;;;;;;;;;;;;;;16.04;45.25;99561.63;4903162;29;19915;-77
2023/04/14 11:47:34;;;;;;;;;;;;;;;16.21;48.56;99561.75;4900390;29;19915;-78
2023/04/14 11:50:26;;;;;;;;;;;;;;;16.17;44.68;99560.13;4905764;29;19915;-78
2023/04/14 11:53:18;;;;;;;;;;;;;;;16.26;43.67;99553.16;4903684;29;19915;-78
2023/04/14 11:56:10;;;;;;;;;;;;;;;16.21;42.45;99561.75;4901788;29;20318;-78
2023/04/14 11:59:02;;;;;;;;;;;;;;;16.21;41.41;99564.47;4902861;29;19923;-78
2023/04/14 12:01:52;;;;;;;;;;;;;;;16.39;38.30;99561.09;4902021;29;19916;-78
2023/04/14 12:04:44;;;;;;;;;;;;;;;16.39;38.70;99566.56;4906827;29;19916;-77
2023/04/14 12:07:36;;;;;;;;;;;;;;;16.47;40.31;99554.47;4903395;29;19915;-76
2023/04/14 12:10:27;;;;;;;;;;;;;;;16.54;41.31;99558.03;4899899;29;19919;-77
2023/04/14 12:13:17;;;;;;;;;;;;;;;16.57;41.78;99551.78;4888740;29;19916;-76
2023/04/14 12:16:07;;;;;;;;;;;;;;;16.69;41.98;99553.44;4890394;29;19915;-76
2023/04/14 12:18:59;;;;;;;;;;;;;;;16.77;41.96;99546.03;4886849;29;20390;-76
2023/04/14 12:21:51;;;;;;;;;;;;;;;16.82;42.30;99546.44;4896634;29;19920;-76
2023/04/14 12:24:41;;;;;;;;;;;;;;;16.90;41.29;99547.28;4891388;29;19916;-76
2023/04/14 12:27:33;;;;;;;;;;;;;;;17.04;43.25;99542.63;4886723;29;19916;-76
2023/04/14 12:30:25;;;;;;;;;;;;;;;17.00;37.82;99546.53;4886343;29;19916;-76
2023/04/14 12:33:17;;;;;;;;;;;;;;;16.99;40.32;99544.94;4881119;29;19916;-76
2023/04/14 12:36:09;;;;;;;;;;;;;;;17.12;42.88;99540.66;4881216;29;19916;-76
2023/04/14 12:39:04;;;;;;;;;;;;;;;17.22;43.65;99537.16;4880205;29;19916;-76
2023/04/14 12:41:58;;;;;;;;;;;;;;;17.23;42.43;99536.00;4879592;29;19915;-76
2023/04/14 12:45:00;;;;;;;;;;;;;;;17.25;41.19;99527.38;4869819;29;19920;-76
2023/04/14 12:47:58;;;;;;;;;;;;;;;17.22;42.82;99520.69;4878965;29;20305;-75
2023/04/14 12:50:50;;;;;;;;;;;;;;;17.26;42.17;99515.22;4883301;29;19920;-75
2023/04/14 12:53:42;;;;;;;;;;;;;;;17.28;43.43;99518.34;4879789;29;19915;-76
2023/04/14 12:56:29;;;;;;;;;;;;;;;17.36;42.67;99515.25;4880108;29;20118;-76
2023/04/14 12:59:21;;;;;;;;;;;;;;;17.43;42.62;99503.47;4879115;29;19916;-76
2023/04/14 13:02:13;;;;;;;;;;;;;;;17.31;42.67;99507.38;4868545;29;19916;-76
2023/04/14 13:05:02;;;;;;;;;;;;;;;17.37;41.57;99496.78;4879647;29;19919;-76
2023/04/14 13:07:52;;;;;;;;;;;;;;;17.35;39.07;99497.19;4880537;29;20388;-76
2023/04/14 13:10:39;;;;;;;;;;;;;;;17.58;41.19;99491.28;4880229;29;20299;-76
2023/04/14 13:13:31;;;;;;;;;;;;;;;17.44;40.84;99497.56;4879364;29;19915;-76
2023/04/14 13:16:23;;;;;;;;;;;;;;;17.46;41.68;99494.44;4880220;29;19923;-76
2023/04/14 13:19:15;;;;;;;;;;;;;;;17.47;39.92;99485.78;4904293;29;20299;-77
2023/04/14 13:22:07;;;;;;;;;;;;;;;17.41;39.01;99492.09;4903008;29;19920;-77
2023/04/14 13:24:56;;;;;;;;;;;;;;;17.40;38.86;99482.25;4887062;29;20371;-77
2023/04/14 13:27:48;;;;;;;;;;;;;;;17.48;39.76;99483.81;4893038;29;20299;-78
2023/04/14 13:30:40;;;;;;;;;;;;;;;17.46;39.50;99478.75;4894334;29;19915;-77
2023/04/14 13:33:32;;;;;;;;;;;;;;;17.49;38.25;99466.16;4899842;29;19915;-77
2023/04/14 13:36:24;;;;;;;;;;;;;;;17.49;38.05;99474.41;4900638;29;19916;-77
2023/04/14 13:39:16;;;;;;;;;;;;;;;17.45;38.53;99466.16;4891406;29;19916;-77
2023/04/14 13:42:08;;;;;;;;;;;;;;;17.60;39.17;99464.25;4876569;29;19916;-76
2023/04/14 13:45:00;;;;;;;;;;;;;;;17.79;39.08;99452.84;4873069;29;19915;-77
2023/04/14 13:47:50;;;;;;;;;;;;;;;17.77;39.46;99448.94;4874501;29;19915;-77
2023/04/14 13:50:40;;;;;;;;;;;;;;;17.80;38.79;99443.41;4891683;29;20222;-76
2023/04/14 13:53:32;;;;;;;;;;;;;;;17.84;38.71;99448.91;4903825;29;19916;-77
2023/04/14 13:56:23;;;;;;;;;;;;;;;17.90;37.47;99442.63;4901886;29;19915;-78
2023/04/14 13:59:15;;;;;;;;;;;;;;;18.00;37.71;99443.78;4901614;29;19919;-79
2023/04/14 14:02:07;;;;;;;;;;;;;;;18.04;37.42;99432.75;4898447;29;19915;-78
2023/04/14 14:04:59;;;;;;;;;;;;;;;18.06;36.96;99433.16;4898935;29;19915;-78
2023/04/14 14:07:51;;;;;;;;;;;;;;;18.06;38.46;99424.91;4898101;29;19919;-78
2023/04/14 14:10:40;;;;;;;;;;;;;;;18.02;37.62;99424.13;4899064;29;19917;-77
2023/04/14 14:13:32;;;;;;;;;;;;;;;18.08;36.80;99428.06;4897635;29;20303;-78
2023/04/14 14:16:22;;;;;;;;;;;;;;;18.10;35.88;99422.91;4896332;29;19915;-76
2023/04/14 14:19:14;;;;;;;;;;;;;;;18.13;36.47;99419.38;4898995;29;19916;-78
2023/04/14 14:22:06;;;;;;;;;;;;;;;18.17;35.90;99420.16;4898593;29;19915;-78
2023/04/14 14:24:58;;;;;;;;;;;;;;;18.22;35.36;99422.50;4902354;29;19919;-78
2023/04/14 14:27:50;;;;;;;;;;;;;;;18.20;34.74;99419.34;4900403;29;19916;-78
2023/04/14 14:30:42;;;;;;;;;;;;;;;18.24;34.87;99422.88;4902825;29;19915;-77
2023/04/14 14:33:34;;;;;;;;;;;;;;;18.25;35.85;99407.94;4901345;29;19915;-78
2023/04/14 14:36:26;;;;;;;;;;;;;;;18.25;35.24;99411.47;4899372;29;19915;-78
2023/04/14 14:39:18;;;;;;;;;;;;;;;18.22;36.55;99411.50;4899093;29;19919;-76
2023/04/14 14:42:10;;;;;;;;;;;;;;;18.20;35.52;99408.34;4900349;29;19915;-78
2023/04/14 14:45:02;;;;;;;;;;;;;;;18.25;36.57;99413.44;4898913;29;19915;-78
2023/04/14 14:47:51;;;;;;;;;;;;;;;18.30;36.75;99416.56;4899927;29;19915;-78
2023/04/14 14:50:43;;;;;;;;;;;;;;;18.34;36.93;99416.53;4899149;29;19916;-76
2023/04/14 14:53:36;;;;;;;;;;;;;;;18.26;34.34;99404.78;4899650;29;19916;-78
2023/04/14 14:56:25;;;;;;;;;;;;;;;18.36;34.73;99403.19;4901883;29;19919;-77